createdAt,value
2022-12-03T00:00:31.671Z,34.53
2022-12-03T00:02:58.647Z,34.55
2022-12-03T00:05:25.603Z,32.83
2022-12-03T00:07:52.500Z,33.15
2022-12-03T00:10:19.735Z,30.92
2022-12-03T00:12:46.936Z,35.80
2022-12-03T00:15:13.895Z,33.60
2022-12-03T00:17:40.803Z,33.72
2022-12-03T00:20:08.183Z,35.83
2022-12-03T00:22:35.036Z,34.88
2022-12-03T00:25:01.918Z,34.72
2022-12-03T00:27:28.784Z,34.22
2022-12-03T00:29:55.635Z,33.95
2022-12-03T00:32:22.514Z,32.88
2022-12-03T00:34:49.395Z,34.05
2022-12-03T00:37:16.306Z,32.72
2022-12-03T00:39:43.270Z,35.85
2022-12-03T00:42:10.116Z,32.17
2022-12-03T00:44:36.981Z,34.55
2022-12-03T00:47:04.048Z,32.53
2022-12-03T00:49:31.288Z,35.53
2022-12-03T00:51:58.142Z,35.88
2022-12-03T00:54:30.223Z,31.73
2022-12-03T00:56:58.823Z,34.40
2022-12-03T00:59:25.879Z,31.40
2022-12-03T01:01:52.811Z,33.15
2022-12-03T01:04:19.829Z,31.25
2022-12-03T01:06:46.860Z,34.50
2022-12-03T01:09:13.726Z,30.55
2022-12-03T01:11:41.495Z,31.38
2022-12-03T01:14:14.047Z,31.20
2022-12-03T01:16:41.462Z,32.80
2022-12-03T01:19:10.455Z,31.52
2022-12-03T01:21:37.553Z,31.85
2022-12-03T01:24:04.837Z,33.25
2022-12-03T01:26:31.693Z,30.38
2022-12-03T01:28:58.587Z,33.65
2022-12-03T01:31:44.161Z,32.72
2022-12-03T01:34:11.155Z,30.55
2022-12-03T01:36:38.055Z,30.33
2022-12-03T01:39:04.994Z,34.22
2022-12-03T01:41:32.091Z,32.40
2022-12-03T01:43:59.034Z,31.65
2022-12-03T01:46:28.917Z,29.48
2022-12-03T01:48:55.802Z,33.17
2022-12-03T01:51:22.678Z,31.23
2022-12-03T01:53:51.133Z,31.70
2022-12-03T01:56:18.321Z,31.88
2022-12-03T01:58:45.490Z,27.83
2022-12-03T02:01:14.624Z,29.23
2022-12-03T02:03:41.673Z,28.75
2022-12-03T02:06:16.464Z,28.05
2022-12-03T02:08:43.946Z,29.17
2022-12-03T02:11:19.037Z,30.23
2022-12-03T02:13:46.039Z,28.27
2022-12-03T02:16:12.918Z,30.70
2022-12-03T02:18:39.823Z,29.48
2022-12-03T02:21:18.949Z,29.98
2022-12-03T02:24:01.232Z,30.25
2022-12-03T02:26:28.199Z,29.30
2022-12-03T02:28:55.074Z,30.70
2022-12-03T02:31:22.446Z,30.15
2022-12-03T02:33:49.486Z,31.63
2022-12-03T02:36:16.413Z,29.15
2022-12-03T02:38:43.362Z,29.00
2022-12-03T02:41:31.864Z,28.63
2022-12-03T02:43:58.804Z,31.83
2022-12-03T02:46:25.691Z,29.33
2022-12-03T02:48:52.642Z,30.15
2022-12-03T02:51:19.496Z,29.27
2022-12-03T02:53:47.563Z,28.73
2022-12-03T02:56:18.479Z,29.08
2022-12-03T02:58:45.786Z,30.20
2022-12-03T03:01:12.823Z,28.73
2022-12-03T03:03:39.934Z,28.33
2022-12-03T03:06:07.127Z,28.63
2022-12-03T03:08:33.986Z,27.65
2022-12-03T03:11:01.616Z,27.98
2022-12-03T03:13:29.245Z,28.40
2022-12-03T03:15:56.131Z,28.77
2022-12-03T03:18:23.026Z,27.35
2022-12-03T03:20:49.884Z,26.52
2022-12-03T03:23:21.245Z,28.02
2022-12-03T03:25:52.308Z,30.40
2022-12-03T03:28:22.035Z,29.52
2022-12-03T03:30:48.888Z,27.05
2022-12-03T03:33:15.867Z,30.58
2022-12-03T03:35:43.208Z,29.10
2022-12-03T03:38:10.182Z,28.80
2022-12-03T03:40:37.839Z,26.88
2022-12-03T03:43:04.753Z,27.30
2022-12-03T03:45:31.706Z,27.60
2022-12-03T03:47:58.637Z,29.88
2022-12-03T03:50:26.863Z,28.60
2022-12-03T03:52:53.717Z,30.15
2022-12-03T03:55:20.711Z,27.02
2022-12-03T03:57:47.624Z,28.20
2022-12-03T04:00:16.901Z,27.80
2022-12-03T04:02:44.037Z,26.73
2022-12-03T04:05:20.270Z,26.55
2022-12-03T04:07:47.361Z,29.08
2022-12-03T04:10:33.078Z,28.00
2022-12-03T04:13:00.145Z,27.20
2022-12-03T04:15:27.075Z,28.20
2022-12-03T04:18:13.396Z,29.10
2022-12-03T04:20:41.327Z,26.80
2022-12-03T04:23:08.364Z,27.33
2022-12-03T04:25:53.862Z,28.30
2022-12-03T04:28:39.400Z,28.17
2022-12-03T04:31:26.339Z,26.40
2022-12-03T04:34:12.029Z,27.77
2022-12-03T04:36:39.073Z,29.23
2022-12-03T04:39:05.982Z,26.98
2022-12-03T04:41:32.909Z,27.50
2022-12-03T04:44:18.602Z,28.48
2022-12-03T04:46:45.450Z,27.27
2022-12-03T04:49:12.900Z,25.75
2022-12-03T04:51:39.797Z,27.48
2022-12-03T04:54:06.718Z,30.58
2022-12-03T04:56:33.525Z,28.92
2022-12-03T04:59:00.398Z,30.50
2022-12-03T05:01:27.298Z,26.83
2022-12-03T05:03:54.236Z,29.80
2022-12-03T05:06:21.134Z,26.75
2022-12-03T05:08:47.997Z,27.70
2022-12-03T05:11:14.908Z,28.27
2022-12-03T05:13:43.072Z,26.38
2022-12-03T05:16:10.488Z,26.65
2022-12-03T05:18:37.476Z,25.33
2022-12-03T05:21:04.640Z,25.77
2022-12-03T05:23:32.222Z,28.30
2022-12-03T05:25:59.129Z,29.75
2022-12-03T05:28:26.087Z,28.33
2022-12-03T05:30:53.021Z,25.73
2022-12-03T05:33:20.622Z,28.65
2022-12-03T05:35:47.706Z,28.95
2022-12-03T05:38:14.567Z,26.65
2022-12-03T05:40:41.437Z,27.05
2022-12-03T05:43:08.354Z,25.77
2022-12-03T05:45:42.901Z,27.92
2022-12-03T05:48:11.308Z,29.73
2022-12-03T05:50:38.793Z,26.23
2022-12-03T05:53:14.923Z,25.35
2022-12-03T05:55:41.946Z,26.25
2022-12-03T05:58:08.900Z,26.42
2022-12-03T06:00:42.809Z,25.85
2022-12-03T06:03:10.444Z,27.25
2022-12-03T06:05:37.817Z,26.17
2022-12-03T06:08:04.938Z,28.40
2022-12-03T06:10:32.579Z,25.27
2022-12-03T06:12:59.513Z,30.33
2022-12-03T06:15:26.416Z,26.45
2022-12-03T06:17:53.379Z,28.73
2022-12-03T06:20:20.363Z,26.50
2022-12-03T06:22:47.639Z,30.00
2022-12-03T06:25:14.679Z,26.73
2022-12-03T06:27:41.577Z,31.25
2022-12-03T06:30:11.509Z,29.40
2022-12-03T06:32:38.345Z,30.33
2022-12-03T06:35:05.551Z,30.88
2022-12-03T06:37:32.447Z,29.10
2022-12-03T06:39:59.309Z,28.42
2022-12-03T06:42:26.205Z,30.60
2022-12-03T06:44:53.405Z,28.35
2022-12-03T06:47:20.389Z,29.15
2022-12-03T06:49:47.226Z,32.05
2022-12-03T06:52:14.140Z,30.88
2022-12-03T06:54:40.994Z,32.22
2022-12-03T06:57:07.844Z,30.13
2022-12-03T06:59:37.536Z,35.40
2022-12-03T07:02:04.995Z,31.58
2022-12-03T07:04:32.002Z,31.70
2022-12-03T07:06:58.998Z,29.35
2022-12-03T07:09:25.911Z,32.05
2022-12-03T07:11:52.845Z,29.02
2022-12-03T07:14:19.963Z,30.90
2022-12-03T07:16:47.650Z,29.83
2022-12-03T07:19:14.592Z,32.50
2022-12-03T07:21:41.585Z,34.05
2022-12-03T07:24:08.486Z,30.92
2022-12-03T07:26:35.462Z,29.27
2022-12-03T07:29:02.388Z,32.78
2022-12-03T07:31:29.373Z,31.45
2022-12-03T07:33:56.298Z,29.40
2022-12-03T07:36:23.242Z,30.80
2022-12-03T07:38:50.125Z,32.92
2022-12-03T07:41:16.974Z,27.60
2022-12-03T07:43:45.304Z,28.50
2022-12-03T07:46:12.366Z,30.48
2022-12-03T07:48:39.254Z,29.75
2022-12-03T07:51:06.721Z,33.28
2022-12-03T07:53:33.648Z,30.90
2022-12-03T07:56:01.282Z,46.90
2022-12-03T07:58:28.400Z,49.63
2022-12-03T08:00:55.318Z,53.83
2022-12-03T08:03:22.202Z,56.65
2022-12-03T08:05:49.166Z,52.15
2022-12-03T08:08:16.183Z,42.97
2022-12-03T08:10:43.158Z,50.90
2022-12-03T08:13:13.051Z,46.95
2022-12-03T08:15:39.951Z,40.80
2022-12-03T08:18:20.536Z,51.90
2022-12-03T08:20:50.310Z,47.55
2022-12-03T08:23:19.673Z,43.95
2022-12-03T08:25:46.810Z,46.72
2022-12-03T08:28:20.277Z,46.33
2022-12-03T08:31:07.467Z,41.58
2022-12-03T08:33:35.743Z,45.83
2022-12-03T08:36:11.597Z,42.20
2022-12-03T08:38:41.144Z,48.65
2022-12-03T08:41:14.880Z,42.78
2022-12-03T08:43:44.791Z,42.53
2022-12-03T08:46:13.990Z,43.10
2022-12-03T08:48:47.072Z,45.55
2022-12-03T08:51:23.774Z,44.50
2022-12-03T08:56:30.217Z,43.92
2022-12-03T08:58:59.259Z,40.50
2022-12-03T09:01:44.442Z,41.38
2022-12-03T09:06:41.255Z,42.03
2022-12-03T09:09:08.216Z,35.47
2022-12-03T09:11:35.145Z,38.65
2022-12-03T09:14:02.033Z,36.58
2022-12-03T09:16:28.973Z,36.67
2022-12-03T09:18:55.916Z,39.35
2022-12-03T09:21:22.841Z,36.70
2022-12-03T09:23:49.737Z,37.70
2022-12-03T09:26:16.610Z,39.15
2022-12-03T09:28:43.505Z,40.22
2022-12-03T09:31:10.383Z,37.72
2022-12-03T09:33:37.226Z,37.28
2022-12-03T09:36:04.456Z,37.03
2022-12-03T09:38:31.358Z,37.47
2022-12-03T09:40:58.260Z,35.47
2022-12-03T09:43:33.514Z,41.15
2022-12-03T09:46:12.101Z,35.53
2022-12-03T09:48:39.013Z,39.85
2022-12-03T09:51:06.113Z,37.38
2022-12-03T09:53:36.700Z,38.03
2022-12-03T09:56:09.093Z,36.70
2022-12-03T09:58:35.972Z,38.92
2022-12-03T10:01:02.993Z,40.70
2022-12-03T10:03:30.580Z,39.65
2022-12-03T10:05:57.606Z,39.75
2022-12-03T10:08:32.370Z,38.50
2022-12-03T10:10:59.584Z,38.05
2022-12-03T10:13:30.528Z,42.33
2022-12-03T10:15:58.771Z,38.63
2022-12-03T10:18:30.507Z,36.22
2022-12-03T10:20:57.834Z,41.00
2022-12-03T10:23:26.607Z,37.67
2022-12-03T10:26:03.108Z,45.60
2022-12-03T10:28:29.878Z,39.70
2022-12-03T10:30:57.322Z,40.75
2022-12-03T10:33:29.388Z,43.38
2022-12-03T10:35:56.271Z,39.17
2022-12-03T10:38:23.289Z,44.97
2022-12-03T10:40:50.324Z,39.05
2022-12-03T10:43:20.164Z,40.70
2022-12-03T10:46:10.051Z,38.92
2022-12-03T10:48:36.976Z,40.35
2022-12-03T10:51:04.705Z,40.35
2022-12-03T10:53:33.525Z,42.47
2022-12-03T10:56:02.008Z,39.47
2022-12-03T10:58:30.474Z,41.88
2022-12-03T11:00:58.175Z,40.40
2022-12-03T11:03:26.932Z,42.63
2022-12-03T11:05:54.785Z,42.30
2022-12-03T11:08:22.530Z,37.67
2022-12-03T11:11:06.266Z,40.25
2022-12-03T11:13:33.278Z,42.90
2022-12-03T11:16:03.489Z,40.95
2022-12-03T11:18:36.343Z,39.03
2022-12-03T11:21:03.223Z,39.35
2022-12-03T11:23:45.157Z,39.30
2022-12-03T11:26:19.798Z,39.50
2022-12-03T11:28:46.901Z,38.85
2022-12-03T11:31:36.236Z,40.70
2022-12-03T11:34:18.369Z,38.67
2022-12-03T11:37:09.994Z,40.75
2022-12-03T11:39:52.222Z,39.75
2022-12-03T11:42:30.285Z,44.20
2022-12-03T11:45:06.068Z,42.65
2022-12-03T11:48:05.112Z,45.03
2022-12-03T11:50:39.709Z,42.83
2022-12-03T11:53:17.475Z,45.10
2022-12-03T11:55:48.470Z,46.20
2022-12-03T11:58:24.630Z,44.85
2022-12-03T12:00:52.451Z,43.78
2022-12-03T12:03:24.010Z,48.53
2022-12-03T12:06:10.920Z,49.47
2022-12-03T12:08:50.852Z,51.80
2022-12-03T12:11:30.544Z,48.13
2022-12-03T12:13:58.827Z,53.20
2022-12-03T12:16:52.814Z,50.47
2022-12-03T12:19:37.149Z,54.58
2022-12-03T12:22:19.511Z,55.70
2022-12-03T12:24:47.425Z,55.22
2022-12-03T12:27:18.944Z,61.42
2022-12-03T12:29:54.337Z,62.28
2022-12-03T12:32:50.094Z,58.38
2022-12-03T12:35:24.153Z,63.42
2022-12-03T12:37:59.037Z,64.73
2022-12-03T12:40:31.307Z,62.13
2022-12-03T12:43:09.938Z,64.10
2022-12-03T12:45:41.565Z,62.88
2022-12-03T12:48:26.720Z,59.72
2022-12-03T12:51:13.029Z,62.65
2022-12-03T12:53:40.483Z,65.40
2022-12-03T12:56:16.698Z,62.53
2022-12-03T12:58:43.596Z,62.90
2022-12-03T13:01:29.783Z,63.92
2022-12-03T13:03:56.783Z,63.17
2022-12-03T13:06:27.927Z,64.10
2022-12-03T13:08:54.859Z,67.35
2022-12-03T13:11:38.808Z,63.72
2022-12-03T13:14:19.847Z,63.33
2022-12-03T13:16:48.058Z,64.78
2022-12-03T13:19:27.887Z,65.75
2022-12-03T13:21:55.730Z,70.30
2022-12-03T13:24:47.884Z,63.33
2022-12-03T13:27:27.172Z,65.63
2022-12-03T13:30:16.185Z,63.80
2022-12-03T13:32:43.046Z,69.10
2022-12-03T13:35:09.948Z,66.05
2022-12-03T13:37:37.011Z,66.15
2022-12-03T13:40:30.691Z,71.05
2022-12-03T13:42:58.011Z,65.20
2022-12-03T13:45:41.650Z,71.68
2022-12-03T13:48:31.293Z,67.45
2022-12-03T13:50:59.698Z,69.78
2022-12-03T13:53:33.223Z,66.80
2022-12-03T13:56:03.190Z,66.75
2022-12-03T13:58:30.106Z,69.65
2022-12-03T14:00:57.050Z,71.10
2022-12-03T14:03:24.009Z,67.65
2022-12-03T14:05:50.921Z,69.20
2022-12-03T14:08:17.919Z,67.68
2022-12-03T14:10:44.859Z,64.43
2022-12-03T14:13:11.748Z,68.32
2022-12-03T14:15:38.703Z,68.03
2022-12-03T14:18:05.629Z,69.03
2022-12-03T14:20:34.460Z,69.28
2022-12-03T14:23:01.398Z,67.38
2022-12-03T14:25:28.270Z,69.45
2022-12-03T14:27:55.165Z,68.78
2022-12-03T14:30:22.049Z,73.78
2022-12-03T14:32:48.902Z,70.38
2022-12-03T14:35:15.948Z,66.25
2022-12-03T14:37:45.030Z,72.40
2022-12-03T14:40:16.531Z,69.20
2022-12-03T14:42:46.636Z,72.03
2022-12-03T14:45:13.615Z,68.13
2022-12-03T14:47:40.671Z,68.47
2022-12-03T14:50:08.265Z,71.85
2022-12-03T14:52:35.249Z,70.03
2022-12-03T14:55:02.162Z,74.10
2022-12-03T14:57:29.117Z,74.88
2022-12-03T14:59:56.259Z,70.97
2022-12-03T15:02:23.476Z,72.07
2022-12-03T15:04:50.456Z,71.93
2022-12-03T15:07:17.334Z,74.72
2022-12-03T15:09:44.201Z,72.28
2022-12-03T15:12:11.130Z,75.40
2022-12-03T15:14:38.212Z,75.28
2022-12-03T15:17:05.225Z,70.20
2022-12-03T15:19:32.212Z,75.05
2022-12-03T15:21:59.109Z,74.50
2022-12-03T15:24:26.021Z,74.18
2022-12-03T15:26:53.632Z,69.38
2022-12-03T15:29:20.674Z,73.30
2022-12-03T15:31:47.610Z,75.10
2022-12-03T15:34:20.325Z,72.47
2022-12-03T15:36:49.192Z,70.07
2022-12-03T15:39:16.077Z,77.00
2022-12-03T15:41:42.951Z,68.53
2022-12-03T15:44:10.013Z,69.68
2022-12-03T15:46:37.061Z,71.38
2022-12-03T15:49:04.025Z,70.65
2022-12-03T15:51:30.891Z,67.35
2022-12-03T15:53:57.816Z,68.47
2022-12-03T15:56:24.695Z,68.22
2022-12-03T15:58:51.607Z,71.95
2022-12-03T16:01:18.694Z,67.75
2022-12-03T16:03:45.700Z,69.25
2022-12-03T16:06:13.015Z,68.50
2022-12-03T16:08:39.976Z,67.97
2022-12-03T16:11:06.902Z,71.93
2022-12-03T16:13:34.384Z,68.72
2022-12-03T16:16:01.725Z,70.18
2022-12-03T16:18:28.958Z,67.93
2022-12-03T16:20:55.814Z,74.70
2022-12-03T16:23:22.780Z,72.15
2022-12-03T16:25:49.676Z,70.43
2022-12-03T16:28:16.714Z,74.65
2022-12-03T16:30:43.746Z,72.95
2022-12-03T16:33:10.643Z,69.80
2022-12-03T16:35:38.077Z,73.80
2022-12-03T16:38:05.031Z,69.70
2022-12-03T16:40:31.897Z,74.65
2022-12-03T16:42:58.793Z,69.03
2022-12-03T16:46:00.946Z,79.00
2022-12-03T16:48:31.307Z,70.10
2022-12-03T16:50:58.246Z,75.28
2022-12-03T16:53:25.273Z,74.72
2022-12-03T16:55:52.121Z,75.32
2022-12-03T16:58:21.345Z,76.13
2022-12-03T17:00:49.034Z,75.10
2022-12-03T17:03:17.886Z,73.43
2022-12-03T17:05:45.189Z,72.80
2022-12-03T17:08:12.256Z,72.65
2022-12-03T17:10:39.331Z,71.53
2022-12-03T17:13:10.480Z,73.80
2022-12-03T17:15:38.242Z,74.90
2022-12-03T17:18:05.617Z,72.43
2022-12-03T17:20:32.989Z,77.63
2022-12-03T17:23:00.106Z,70.40
2022-12-03T17:25:27.153Z,72.78
2022-12-03T17:27:54.293Z,75.22
2022-12-03T17:30:21.379Z,69.75
2022-12-03T17:32:50.413Z,73.07
2022-12-03T17:35:17.650Z,72.22
2022-12-03T17:37:44.581Z,79.97
2022-12-03T17:40:12.374Z,70.80
2022-12-03T17:42:39.413Z,69.63
2022-12-03T17:45:07.077Z,70.30
2022-12-03T17:47:34.007Z,71.68
2022-12-03T17:50:00.856Z,68.93
2022-12-03T17:52:27.770Z,70.30
2022-12-03T17:55:13.149Z,68.10
2022-12-03T17:57:41.541Z,68.55
2022-12-03T18:00:09.744Z,68.43
2022-12-03T18:02:39.269Z,63.33
2022-12-03T18:05:06.396Z,71.57
2022-12-03T18:07:33.537Z,68.30
2022-12-03T18:10:00.477Z,64.82
2022-12-03T18:12:27.452Z,68.25
2022-12-03T18:14:54.306Z,66.45
2022-12-03T18:17:21.178Z,69.00
2022-12-03T18:19:48.126Z,66.25
2022-12-03T18:22:15.150Z,65.45
2022-12-03T18:24:44.012Z,66.30
2022-12-03T18:27:11.865Z,62.60
2022-12-03T18:29:38.715Z,63.63
2022-12-03T18:32:27.052Z,61.22
2022-12-03T18:34:55.171Z,66.30
2022-12-03T18:37:22.037Z,59.65
2022-12-03T18:39:48.960Z,62.35
2022-12-03T18:42:17.371Z,62.20
2022-12-03T18:44:49.499Z,64.45
2022-12-03T18:47:21.381Z,63.47
2022-12-03T18:49:48.334Z,60.83
2022-12-03T18:52:16.773Z,60.90
2022-12-03T18:54:43.752Z,59.92
2022-12-03T18:57:10.723Z,58.70
2022-12-03T18:59:37.604Z,61.15
2022-12-03T19:02:05.149Z,62.72
2022-12-03T19:04:32.073Z,55.78
2022-12-03T19:06:58.980Z,57.03
2022-12-03T19:09:26.027Z,58.35
2022-12-03T19:11:52.883Z,57.40
2022-12-03T19:14:19.791Z,58.78
2022-12-03T19:16:46.851Z,58.80
2022-12-03T19:19:13.762Z,59.42
2022-12-03T19:21:40.679Z,61.38
2022-12-03T19:24:24.986Z,58.03
2022-12-03T19:26:54.701Z,55.03
2022-12-03T19:29:22.980Z,57.10
2022-12-03T19:31:52.262Z,56.40
2022-12-03T19:34:19.312Z,54.78
2022-12-03T19:36:46.360Z,59.38
2022-12-03T19:39:13.361Z,62.78
2022-12-03T19:41:41.919Z,58.70
2022-12-03T19:44:14.607Z,56.60
2022-12-03T19:46:41.546Z,54.75
2022-12-03T19:49:08.424Z,54.72
2022-12-03T19:51:36.532Z,56.70
2022-12-03T19:54:04.764Z,57.50
2022-12-03T19:56:31.615Z,53.80
2022-12-03T19:58:58.604Z,58.53
2022-12-03T20:01:27.313Z,58.00
2022-12-03T20:03:55.095Z,56.20
2022-12-03T20:06:24.231Z,59.55
2022-12-03T20:08:51.850Z,63.03
2022-12-03T20:11:20.845Z,58.60
2022-12-03T20:13:48.541Z,57.72
2022-12-03T20:16:15.832Z,61.65
2022-12-03T20:18:44.159Z,58.00
2022-12-03T20:21:11.406Z,60.72
2022-12-03T20:23:38.660Z,59.15
2022-12-03T20:26:13.023Z,59.90
2022-12-03T20:28:40.112Z,59.03
2022-12-03T20:31:13.379Z,61.58
2022-12-03T20:33:42.487Z,60.70
2022-12-03T20:36:10.035Z,66.57
2022-12-03T20:38:37.302Z,62.28
2022-12-03T20:41:05.859Z,63.60
2022-12-03T20:43:33.014Z,62.70
2022-12-03T20:46:32.570Z,65.03
2022-12-03T20:48:59.652Z,67.15
2022-12-03T20:51:28.200Z,63.65
2022-12-03T20:53:55.682Z,66.53
2022-12-03T20:56:27.333Z,57.75
2022-12-03T20:58:54.366Z,67.07
2022-12-03T21:01:26.632Z,67.60
2022-12-03T21:03:55.023Z,61.78
2022-12-03T21:06:22.282Z,57.92
2022-12-03T21:08:49.233Z,60.63
2022-12-03T21:11:18.586Z,61.95
2022-12-03T21:13:45.772Z,63.35
2022-12-03T21:16:17.402Z,67.60
2022-12-03T21:18:44.384Z,64.50
2022-12-03T21:21:12.015Z,60.47
2022-12-03T21:23:38.961Z,62.15
2022-12-03T21:26:10.451Z,61.63
2022-12-03T21:28:38.027Z,67.93
2022-12-03T21:31:06.279Z,68.03
2022-12-03T21:33:33.282Z,70.53
2022-12-03T21:36:00.355Z,64.53
2022-12-03T21:38:27.631Z,67.93
2022-12-03T21:40:54.649Z,68.05
2022-12-03T21:43:21.847Z,63.63
2022-12-03T21:45:49.123Z,68.30
2022-12-03T21:48:16.257Z,65.43
2022-12-03T21:50:43.230Z,67.45
2022-12-03T21:53:10.259Z,66.20
2022-12-03T21:55:40.781Z,61.33
2022-12-03T21:58:08.476Z,64.95
2022-12-03T22:00:35.813Z,64.13
2022-12-03T22:03:03.195Z,68.32
2022-12-03T22:05:30.225Z,68.18
2022-12-03T22:07:57.149Z,68.90
2022-12-03T22:10:24.021Z,65.95
2022-12-03T22:12:50.879Z,64.43
2022-12-03T22:15:19.470Z,67.03
2022-12-03T22:17:47.022Z,65.78
2022-12-03T22:20:14.128Z,68.25
2022-12-03T22:22:41.177Z,67.95
2022-12-03T22:25:08.246Z,65.25
2022-12-03T22:27:35.278Z,68.45
2022-12-03T22:30:02.643Z,64.75
2022-12-03T22:32:29.611Z,65.47
2022-12-03T22:34:56.499Z,64.93
2022-12-03T22:37:23.406Z,66.10
2022-12-03T22:39:50.328Z,65.72
2022-12-03T22:42:17.276Z,68.53
2022-12-03T22:44:44.239Z,64.85
2022-12-03T22:47:11.096Z,65.88
2022-12-03T22:49:38.028Z,67.15
2022-12-03T22:52:04.937Z,62.33
2022-12-03T22:54:31.789Z,64.40
2022-12-03T22:56:58.665Z,64.47
2022-12-03T22:59:25.555Z,65.05
2022-12-03T23:01:52.433Z,62.33
2022-12-03T23:04:19.447Z,67.80
2022-12-03T23:06:46.419Z,65.55
2022-12-03T23:09:13.339Z,63.92
2022-12-03T23:11:40.263Z,63.55
2022-12-03T23:14:07.153Z,66.97
2022-12-03T23:16:34.318Z,63.47
2022-12-03T23:19:01.487Z,63.05
2022-12-03T23:21:30.615Z,60.47
2022-12-03T23:24:01.553Z,61.03
2022-12-03T23:26:28.863Z,67.38
2022-12-03T23:28:56.110Z,61.35
2022-12-03T23:31:25.144Z,68.95
2022-12-03T23:33:52.413Z,61.92
2022-12-03T23:36:19.859Z,63.67
2022-12-03T23:38:46.811Z,63.38
2022-12-03T23:41:15.029Z,63.28
2022-12-03T23:43:42.097Z,67.15
2022-12-03T23:46:10.807Z,64.38
2022-12-03T23:48:37.816Z,66.65
2022-12-03T23:51:06.292Z,67.15
2022-12-03T23:53:33.197Z,63.85
2022-12-03T23:56:00.084Z,65.40
2022-12-03T23:58:26.955Z,64.47
